Nearby METAR Reports

 

KAVP - Avoca/Wilkes B., Pennsylvania, USA
Distance from station: N 16mi, 25km
Updated: 07/08/2020 12:54am
Overcast
Overcast
 Wind from S
Wind: S 3 mph , 6 km/h
Temperature: 73°F , 23°C
Dew Point: 70°F , 21°C
Humidity: 89%
Barometer: 30.03 inHg , 1016.9 hPa
Clouds: Overcast
Visibility: 10 miles , 16 km
Cloud details: Overcast 2300 ft
2020/07/08 04:54 KAVP 080454Z AUTO 17003KT 10SM OVC023 23/21 A3003 RMK AO2 SLP161 T02330206 403060194
KMPO - Mt. Pocono, Pennsylvania, USA
Distance from station: E 20mi, 33km
Updated: 07/08/2020 1:04am
Overcast
Overcast
 Wind from S
Wind: S 5 mph , 7 km/h
Temperature: 72°F , 22°C
Dew Point: 70°F , 21°C
Humidity: 94%
Barometer: 30.09 inHg , 1019 hPa
Clouds: Overcast
Visibility: 8 miles , 13 km
Cloud details: Overcast 500 ft
2020/07/08 05:04 KMPO 080504Z AUTO 17004KT 8SM OVC005 22/21 A3009 RMK AO2 CIG 004V009 T02170206
 
KABE - Allentown, Pennsylvania, USA
Distance from station: SSE 36mi, 58km
Updated: 07/08/2020 12:51am
Mostly cloudy
Mostly cloudy
 Wind from SSW
Wind: SSW 7 mph , 11 km/h
Temperature: 77°F , 25°C
Dew Point: 70°F , 21°C
Humidity: 79%
Barometer: 30.03 inHg , 1016.9 hPa
Clouds: Mostly cloudy
Visibility: 10 miles , 16 km
Cloud details: Partly cloudy 3200 ft
Mostly cloudy 4000 ft
Mostly cloudy 5000 ft
2020/07/08 04:51 KABE 080451Z 21006KT 10SM SCT032 BKN040 BKN050 25/21 A3003 RMK AO2 SLP166 T02500211 403060183
KXLL - Allentown Queen, Pennsylvania, USA
Distance from station: SSE 41mi, 65km
Updated: 07/08/2020 12:55am
Mostly cloudy
Mostly cloudy
 Wind from SSW
Wind: SSW 5 mph , 7 km/h
Temperature: 77°F , 25°C
Dew Point: 72°F , 22°C
Humidity: 83%
Barometer: 30.04 inHg , 1017.3 hPa
Clouds: Mostly cloudy
Visibility: 10 miles , 16 km
Cloud details: Partly cloudy 3000 ft
Partly cloudy 3800 ft
Mostly cloudy 6000 ft
2020/07/08 04:55 KXLL 080455Z AUTO 21004KT 10SM SCT030 SCT038 BKN060 25/22 A3004 RMK AO2